Time;durP1;ratioP1;P1;durP2;ratioP2;P2;SDS_P1;SDS_P2;PMS_P1;PMS_P2;Temp;Humidity;BMP_temperature;BMP_pressure;BME280_temperature;BME280_humidity;BME280_pressure;Samples;Min_cycle;Max_cycle;Signal;HPM_P1;HPM_P2
2022/08/26 00:02:12;;;;;;;16.75;11.77;;;21.40;99.90;;;;;;5026392;28;20207;-68
2022/08/26 00:04:39;;;;;;;20.80;11.90;;;21.20;99.90;;;;;;5026741;28;20210;-69
2022/08/26 00:07:07;;;;;;;17.90;11.40;;;21.10;99.90;;;;;;5026530;28;20261;-68
2022/08/26 00:09:35;;;;;;;18.85;11.45;;;21.10;99.90;;;;;;5027220;28;20255;-68
2022/08/26 00:12:02;;;;;;;19.27;12.18;;;21.00;99.90;;;;;;5025244;28;20200;-68
2022/08/26 00:14:29;;;;;;;18.52;12.10;;;21.00;99.90;;;;;;5027842;28;20203;-68
2022/08/26 00:16:57;;;;;;;18.67;11.93;;;21.00;99.90;;;;;;5028095;28;20263;-68
2022/08/26 00:19:24;;;;;;;17.02;12.20;;;20.90;99.90;;;;;;5029534;28;20212;-68
2022/08/26 00:21:52;;;;;;;17.02;11.95;;;20.90;99.90;;;;;;5028210;28;20463;-68
2022/08/26 00:24:21;;;;;;;19.52;12.57;;;20.90;99.90;;;;;;5030187;28;20285;-68
2022/08/26 00:26:49;;;;;;;18.70;12.15;;;20.90;99.90;;;;;;5026142;28;20283;-68
2022/08/26 00:29:16;;;;;;;20.15;12.10;;;21.00;99.90;;;;;;5019462;28;20258;-69
2022/08/26 00:31:43;;;;;;;19.63;13.40;;;20.90;99.90;;;;;;5027486;28;20250;-68
2022/08/26 00:34:10;;;;;;;19.70;11.82;;;21.00;99.90;;;;;;5028717;28;20654;-68
2022/08/26 00:36:38;;;;;;;17.90;12.77;;;21.10;99.90;;;;;;5022594;28;20212;-69
2022/08/26 00:39:06;;;;;;;18.63;12.77;;;21.10;99.90;;;;;;5019487;28;20232;-68
2022/08/26 00:41:35;;;;;;;17.42;12.02;;;21.10;99.90;;;;;;5022459;28;20298;-68
2022/08/26 00:44:03;;;;;;;20.95;13.93;;;21.00;99.90;;;;;;5025995;28;20208;-68
2022/08/26 00:46:35;;;;;;;20.02;12.57;;;21.00;99.90;;;;;;5029829;28;20215;-69
2022/08/26 00:49:06;;;;;;;21.00;12.27;;;20.90;99.90;;;;;;5017848;28;20274;-68
2022/08/26 00:51:45;;;;;;;20.35;13.63;;;20.90;99.90;;;;;;5019219;28;20208;-69
2022/08/26 00:54:13;;;;;;;21.80;13.45;;;20.90;99.90;;;;;;5029120;28;20616;-69
2022/08/26 00:56:51;;;;;;;18.33;12.52;;;21.10;99.90;;;;;;5024078;28;20277;-69
2022/08/26 00:59:19;;;;;;;23.92;13.00;;;21.10;99.90;;;;;;5030844;28;20212;-68
2022/08/26 01:01:46;;;;;;;22.42;12.75;;;21.10;99.90;;;;;;5028125;28;20259;-68
2022/08/26 01:04:17;;;;;;;19.58;12.55;;;21.20;99.90;;;;;;5029930;28;20203;-68
2022/08/26 01:06:45;;;;;;;22.15;12.35;;;21.10;99.90;;;;;;5031208;28;20204;-69
2022/08/26 01:09:12;;;;;;;23.05;12.70;;;21.20;99.90;;;;;;5022276;28;20662;-69
2022/08/26 01:11:40;;;;;;;20.00;13.13;;;21.10;99.90;;;;;;5026143;28;20219;-69
2022/08/26 01:14:10;;;;;;;17.52;11.68;;;21.20;99.90;;;;;;5026754;28;20283;-68
2022/08/26 01:16:37;;;;;;;21.17;12.50;;;21.20;99.90;;;;;;5018350;28;20208;-69
2022/08/26 01:19:13;;;;;;;23.42;12.02;;;21.20;99.90;;;;;;5026213;28;20282;-68
2022/08/26 01:21:45;;;;;;;23.50;11.70;;;21.20;99.90;;;;;;5030409;28;20696;-69
2022/08/26 01:24:13;;;;;;;16.20;10.63;;;21.20;99.90;;;;;;5021200;28;20195;-69
2022/08/26 01:26:43;;;;;;;17.58;11.75;;;21.30;99.90;;;;;;5027615;28;20936;-68
2022/08/26 01:29:15;;;;;;;16.33;10.48;;;21.20;99.90;;;;;;5016733;28;20226;-69
2022/08/26 01:31:47;;;;;;;18.40;11.45;;;21.30;99.90;;;;;;5017520;28;20616;-68
2022/08/26 01:34:17;;;;;;;29.50;11.90;;;21.30;99.90;;;;;;5027128;28;20621;-69
2022/08/26 01:36:45;;;;;;;17.60;11.18;;;21.30;99.90;;;;;;5014206;28;20623;-69
2022/08/26 01:39:13;;;;;;;18.25;11.55;;;21.30;99.90;;;;;;5022853;28;20634;-69
2022/08/26 01:41:41;;;;;;;18.30;12.15;;;21.20;99.90;;;;;;5026161;28;20247;-69
2022/08/26 01:44:14;;;;;;;19.98;11.77;;;21.20;99.90;;;;;;5022351;28;20263;-69
2022/08/26 01:46:42;;;;;;;20.55;12.18;;;21.10;99.90;;;;;;5021306;28;20215;-69
2022/08/26 01:49:10;;;;;;;18.05;12.65;;;21.10;99.90;;;;;;5024172;28;20566;-69
2022/08/26 01:51:39;;;;;;;16.80;11.65;;;21.10;99.90;;;;;;5021256;28;20208;-69
2022/08/26 01:54:08;;;;;;;18.63;12.25;;;21.00;99.90;;;;;;5016175;28;20208;-69
2022/08/26 01:56:37;;;;;;;18.75;11.10;;;20.90;99.90;;;;;;5016078;28;20266;-69
2022/08/26 01:59:09;;;;;;;17.92;10.90;;;20.90;99.90;;;;;;5020554;28;20234;-69
2022/08/26 02:01:36;;;;;;;16.45;11.38;;;20.90;99.90;;;;;;5028315;28;20199;-69
2022/08/26 02:04:10;;;;;;;21.20;12.25;;;20.80;99.90;;;;;;5022230;28;20642;-69
2022/08/26 02:06:38;;;;;;;19.95;11.02;;;20.90;99.90;;;;;;5024572;28;20211;-69
2022/08/26 02:09:06;;;;;;;19.75;12.38;;;20.90;99.90;;;;;;5015145;28;20216;-69
2022/08/26 02:11:34;;;;;;;15.98;11.63;;;20.80;99.90;;;;;;5022786;28;20203;-69
2022/08/26 02:14:05;;;;;;;17.48;11.43;;;20.80;99.90;;;;;;5019337;28;20211;-69
2022/08/26 02:16:37;;;;;;;18.42;12.23;;;20.80;99.90;;;;;;5026985;28;20239;-69
2022/08/26 02:19:06;;;;;;;19.67;12.48;;;20.70;99.90;;;;;;5016840;28;20325;-69
2022/08/26 02:21:33;;;;;;;20.52;12.48;;;20.50;99.90;;;;;;5027651;28;20614;-68
2022/08/26 02:24:09;;;;;;;19.35;12.85;;;20.40;99.90;;;;;;5023835;28;20548;-68
2022/08/26 02:26:36;;;;;;;19.27;13.63;;;20.20;99.90;;;;;;5021580;28;20195;-68
2022/08/26 02:29:09;;;;;;;24.33;13.60;;;20.20;99.90;;;;;;5016571;28;20213;-68
2022/08/26 02:31:36;;;;;;;22.67;13.85;;;20.30;99.90;;;;;;5020987;28;20208;-68
2022/08/26 02:34:12;;;;;;;19.65;12.20;;;20.30;99.90;;;;;;5020555;28;20223;-69
2022/08/26 02:36:40;;;;;;;20.15;12.98;;;20.40;99.90;;;;;;5021933;28;20278;-68
2022/08/26 02:39:08;;;;;;;19.83;12.50;;;20.40;99.90;;;;;;5014540;28;20270;-68
2022/08/26 02:41:36;;;;;;;17.83;12.75;;;20.40;99.90;;;;;;5025177;28;20204;-69
2022/08/26 02:44:06;;;;;;;18.67;12.43;;;20.40;99.90;;;;;;5019241;28;20262;-68
2022/08/26 02:46:33;;;;;;;16.83;13.23;;;20.20;99.90;;;;;;5022831;28;20211;-69
2022/08/26 02:49:00;;;;;;;22.30;13.52;;;20.00;99.90;;;;;;5028435;28;20253;-69
2022/08/26 02:51:27;;;;;;;21.27;13.10;;;20.00;99.90;;;;;;5018223;28;20200;-69
2022/08/26 02:53:54;;;;;;;21.00;12.90;;;20.00;99.90;;;;;;5028084;28;20230;-69
2022/08/26 02:56:21;;;;;;;17.73;12.18;;;20.10;99.90;;;;;;5020326;28;20202;-69
2022/08/26 02:58:49;;;;;;;20.23;12.77;;;20.00;99.90;;;;;;5025123;28;20216;-69
2022/08/26 03:01:25;;;;;;;21.38;13.27;;;19.90;99.90;;;;;;5023420;28;20207;-69
2022/08/26 03:03:52;;;;;;;17.65;12.35;;;19.90;99.90;;;;;;5025977;28;20630;-69
2022/08/26 03:06:19;;;;;;;18.20;11.90;;;20.00;99.90;;;;;;5019518;28;20444;-69
2022/08/26 03:08:47;;;;;;;19.30;12.60;;;20.10;99.90;;;;;;5026976;28;20262;-70
2022/08/26 03:11:14;;;;;;;18.08;13.32;;;20.20;99.90;;;;;;5028737;28;20203;-69
2022/08/26 03:13:41;;;;;;;17.63;12.27;;;20.30;99.90;;;;;;5025339;28;20208;-69
2022/08/26 03:16:09;;;;;;;22.17;13.23;;;20.30;99.90;;;;;;5028024;28;20204;-69
2022/08/26 03:18:37;;;;;;;23.35;12.45;;;20.20;99.90;;;;;;5022041;28;20579;-69
2022/08/26 03:21:09;;;;;;;20.40;13.65;;;20.10;99.90;;;;;;5023184;28;20651;-69
2022/08/26 03:23:37;;;;;;;23.40;13.00;;;20.00;99.90;;;;;;5021247;28;20215;-68
2022/08/26 03:26:04;;;;;;;18.90;13.05;;;20.00;99.90;;;;;;5015749;28;20204;-68
2022/08/26 03:28:32;;;;;;;22.45;12.90;;;20.00;99.90;;;;;;5020307;28;20204;-68
2022/08/26 03:30:58;;;;;;;20.70;13.40;;;19.90;99.90;;;;;;5026762;28;20203;-68
2022/08/26 03:33:26;;;;;;;19.58;13.02;;;20.00;99.90;;;;;;5025171;28;20207;-68
2022/08/26 03:35:55;;;;;;;19.27;12.60;;;20.00;99.90;;;;;;5020205;28;20204;-68
2022/08/26 03:38:24;;;;;;;18.58;13.27;;;20.00;99.90;;;;;;5016766;28;20231;-68
2022/08/26 03:40:52;;;;;;;23.40;14.57;;;19.90;99.90;;;;;;5022961;28;20207;-68
2022/08/26 03:43:19;;;;;;;18.45;12.23;;;19.70;99.90;;;;;;5013242;28;20200;-68
2022/08/26 03:45:45;;;;;;;19.30;13.45;;;19.70;99.90;;;;;;5017611;28;20263;-68
2022/08/26 03:48:13;;;;;;;18.42;12.52;;;19.80;99.90;;;;;;5019026;28;20628;-68
2022/08/26 03:50:40;;;;;;;20.02;14.32;;;19.90;99.90;;;;;;5030760;28;20238;-68
2022/08/26 03:53:08;;;;;;;17.85;13.38;;;19.90;99.90;;;;;;5034068;28;20606;-68
2022/08/26 03:55:35;;;;;;;21.60;13.45;;;20.00;99.90;;;;;;5027699;28;20621;-68
2022/08/26 03:58:02;;;;;;;25.55;13.68;;;20.00;99.90;;;;;;5016897;28;20208;-68
2022/08/26 04:00:30;;;;;;;21.70;12.95;;;20.00;99.90;;;;;;5031875;28;20227;-68
2022/08/26 04:02:57;;;;;;;22.60;14.55;;;19.90;99.90;;;;;;5029745;28;20213;-68
2022/08/26 04:05:24;;;;;;;21.73;13.77;;;19.80;99.90;;;;;;5018886;28;20226;-68
2022/08/26 04:07:51;;;;;;;20.13;13.60;;;19.90;99.90;;;;;;5017361;28;20283;-68
2022/08/26 04:10:22;;;;;;;25.27;13.27;;;20.00;99.90;;;;;;5022214;28;20620;-68
2022/08/26 04:12:50;;;;;;;25.50;14.73;;;20.20;99.90;;;;;;5022302;28;20682;-72
2022/08/26 04:15:19;;;;;;;21.77;14.30;;;20.20;99.90;;;;;;5027865;28;20206;-72
2022/08/26 04:17:46;;;;;;;22.98;13.95;;;20.10;99.90;;;;;;5020059;28;20647;-72
2022/08/26 04:20:15;;;;;;;21.50;14.57;;;20.00;99.90;;;;;;5025803;28;20302;-72
2022/08/26 04:22:42;;;;;;;25.83;14.63;;;19.90;99.90;;;;;;5014873;28;20211;-72
2022/08/26 04:25:11;;;;;;;24.73;14.68;;;19.90;99.90;;;;;;5022322;28;20205;-72
2022/08/26 04:27:39;;;;;;;30.70;14.55;;;19.80;99.90;;;;;;5029950;28;20211;-72
2022/08/26 04:30:07;;;;;;;31.40;14.00;;;19.90;99.90;;;;;;5013978;28;20219;-68
2022/08/26 04:32:34;;;;;;;30.13;14.27;;;20.00;99.90;;;;;;5015420;28;20251;-68
2022/08/26 04:35:02;;;;;;;27.75;14.10;;;20.10;99.90;;;;;;5015547;28;20205;-68
2022/08/26 04:37:30;;;;;;;30.20;14.45;;;20.20;99.90;;;;;;5026013;28;20200;-68
2022/08/26 04:39:57;;;;;;;28.15;13.40;;;20.30;99.90;;;;;;5020427;28;20235;-68
2022/08/26 04:42:24;;;;;;;23.83;12.75;;;20.30;99.90;;;;;;5019811;28;20205;-68
2022/08/26 04:44:53;;;;;;;20.48;13.43;;;20.40;99.90;;;;;;5024229;28;20204;-68
2022/08/26 04:47:20;;;;;;;22.27;12.85;;;20.40;99.90;;;;;;5018650;28;20278;-68
2022/08/26 04:49:47;;;;;;;23.88;13.35;;;20.30;99.90;;;;;;5022434;28;20226;-66
2022/08/26 04:52:14;;;;;;;26.20;13.75;;;20.00;99.90;;;;;;5026778;28;20267;-68
2022/08/26 04:54:41;;;;;;;23.73;14.10;;;19.80;99.90;;;;;;5020113;28;20261;-68
2022/08/26 04:57:08;;;;;;;27.00;13.57;;;19.90;99.90;;;;;;5024845;28;20204;-68
2022/08/26 04:59:35;;;;;;;23.17;14.50;;;19.90;99.90;;;;;;5028473;28;20693;-66
2022/08/26 05:02:04;;;;;;;22.35;13.90;;;20.10;99.90;;;;;;5025357;28;20277;-72
2022/08/26 05:04:31;;;;;;;22.67;14.10;;;20.10;99.90;;;;;;5029309;28;20199;-72
2022/08/26 05:06:57;;;;;;;19.67;12.82;;;20.10;99.90;;;;;;5027746;28;20207;-72
2022/08/26 05:09:25;;;;;;;20.17;13.63;;;20.10;99.90;;;;;;5029251;28;20269;-69
2022/08/26 05:11:52;;;;;;;28.77;15.13;;;20.00;99.90;;;;;;5024947;28;20542;-71
2022/08/26 05:14:19;;;;;;;23.60;13.65;;;20.00;99.90;;;;;;5027062;28;20203;-72
2022/08/26 05:16:46;;;;;;;23.20;13.05;;;20.00;99.90;;;;;;5028169;28;20208;-72
2022/08/26 05:19:15;;;;;;;23.35;13.35;;;20.00;99.90;;;;;;5028777;28;20235;-66
2022/08/26 05:21:43;;;;;;;21.15;12.93;;;20.10;99.90;;;;;;5030420;28;20207;-68
2022/08/26 05:24:12;;;;;;;25.65;13.02;;;20.20;99.90;;;;;;5028052;28;20214;-68
2022/08/26 05:26:39;;;;;;;19.38;13.07;;;20.30;99.90;;;;;;5020907;28;20240;-68
2022/08/26 05:29:06;;;;;;;22.38;12.77;;;20.30;99.90;;;;;;5022506;28;20248;-71
2022/08/26 05:31:34;;;;;;;22.35;13.07;;;20.40;99.90;;;;;;5020868;28;20626;-73
2022/08/26 05:34:03;;;;;;;21.17;12.50;;;20.40;99.90;;;;;;5024411;28;20208;-68
2022/08/26 05:36:33;;;;;;;25.35;13.07;;;20.30;99.90;;;;;;5018331;28;20628;-68
2022/08/26 05:39:01;;;;;;;21.10;13.30;;;20.40;99.90;;;;;;5021659;28;20215;-68
2022/08/26 05:41:31;;;;;;;17.67;12.55;;;20.40;99.90;;;;;;5027891;28;20262;-69
2022/08/26 05:44:00;;;;;;;24.65;12.95;;;20.50;99.90;;;;;;5025567;28;20306;-68
2022/08/26 05:46:28;;;;;;;21.83;13.18;;;20.50;99.90;;;;;;5029071;28;20200;-67
2022/08/26 05:48:55;;;;;;;23.02;12.85;;;20.70;99.90;;;;;;5023724;28;20207;-66
2022/08/26 05:51:23;;;;;;;20.33;12.60;;;20.70;99.90;;;;;;5024307;28;20242;-72
2022/08/26 05:53:52;;;;;;;19.25;12.15;;;20.80;99.90;;;;;;5030231;28;20712;-72
2022/08/26 05:56:23;;;;;;;18.42;12.13;;;20.80;99.90;;;;;;5024024;28;20210;-72
2022/08/26 05:58:50;;;;;;;19.85;12.40;;;20.80;99.90;;;;;;5024600;28;20226;-73
2022/08/26 06:01:19;;;;;;;21.05;12.70;;;20.80;99.90;;;;;;5030090;28;20203;-72
2022/08/26 06:03:47;;;;;;;26.02;13.80;;;20.80;99.90;;;;;;5032748;28;20250;-72
2022/08/26 06:06:17;;;;;;;24.55;13.35;;;20.60;99.90;;;;;;5024680;28;20208;-73
2022/08/26 06:08:45;;;;;;;18.92;12.52;;;20.70;99.90;;;;;;5026122;28;20208;-73
2022/08/26 06:11:15;;;;;;;26.25;12.85;;;20.70;99.90;;;;;;5031543;28;20225;-72
2022/08/26 06:13:43;;;;;;;24.35;14.70;;;20.80;99.90;;;;;;5031049;28;20204;-73
2022/08/26 06:16:12;;;;;;;25.75;13.60;;;20.80;99.90;;;;;;5024546;28;20258;-72
2022/08/26 06:18:41;;;;;;;22.67;14.25;;;20.70;99.90;;;;;;5028204;28;20219;-72
2022/08/26 06:21:14;;;;;;;23.15;14.35;;;20.80;99.90;;;;;;5027685;28;20204;-73
2022/08/26 06:26:29;;;;;;;20.70;12.15;;;20.70;99.90;;;;;;5030180;28;20206;-72
2022/08/26 06:28:56;;;;;;;19.85;12.43;;;20.70;99.90;;;;;;5026744;28;20196;-72
2022/08/26 06:31:24;;;;;;;23.23;13.60;;;20.70;99.90;;;;;;5030638;28;20197;-72
2022/08/26 06:33:51;;;;;;;22.92;12.80;;;20.70;99.90;;;;;;5028821;28;20655;-72
2022/08/26 06:36:20;;;;;;;24.35;13.38;;;20.60;99.90;;;;;;5031985;28;20539;-72
2022/08/26 06:38:48;;;;;;;24.33;13.07;;;20.60;99.90;;;;;;5026075;28;20204;-72
2022/08/26 06:41:16;;;;;;;21.13;12.88;;;20.60;99.90;;;;;;5027298;28;20214;-72
2022/08/26 06:43:44;;;;;;;22.80;14.25;;;20.60;99.90;;;;;;5028207;28;20208;-72
2022/08/26 06:46:15;;;;;;;22.17;12.90;;;20.70;99.90;;;;;;5029105;28;20203;-73
2022/08/26 06:48:42;;;;;;;25.23;13.07;;;20.80;99.90;;;;;;5026570;28;20227;-72
2022/08/26 06:51:11;;;;;;;25.42;12.38;;;20.90;99.90;;;;;;5029544;28;20203;-73
2022/08/26 06:53:40;;;;;;;22.10;12.52;;;20.80;99.90;;;;;;5030794;28;20290;-72
2022/08/26 06:56:10;;;;;;;23.98;12.93;;;20.90;99.90;;;;;;5025989;28;20215;-71
2022/08/26 06:58:39;;;;;;;20.33;12.80;;;20.80;99.90;;;;;;5028202;28;20218;-72
2022/08/26 07:01:15;;;;;;;22.75;13.23;;;20.80;99.90;;;;;;5025501;28;20227;-71
2022/08/26 07:03:41;;;;;;;27.20;14.13;;;20.80;99.90;;;;;;5029811;28;20204;-71
2022/08/26 07:06:08;;;;;;;21.63;11.70;;;20.90;99.90;;;;;;5023613;28;20651;-73
2022/08/26 07:08:36;;;;;;;23.60;12.32;;;21.00;99.90;;;;;;5022179;28;20219;-71
2022/08/26 07:11:05;;;;;;;21.05;12.00;;;21.10;99.90;;;;;;5028099;28;20196;-72
2022/08/26 07:13:35;;;;;;;27.90;12.55;;;21.20;99.90;;;;;;5030377;28;20662;-72
2022/08/26 07:16:03;;;;;;;22.55;12.20;;;21.30;99.90;;;;;;5029228;28;20215;-72
2022/08/26 07:18:32;;;;;;;22.45;12.93;;;21.40;99.90;;;;;;5023612;28;20230;-71
2022/08/26 07:21:00;;;;;;;20.08;12.90;;;21.50;99.90;;;;;;5026180;28;20223;-71
2022/08/26 07:23:27;;;;;;;18.58;11.65;;;21.60;99.90;;;;;;5027451;28;20200;-71
2022/08/26 07:25:54;;;;;;;20.08;11.73;;;21.60;99.90;;;;;;5029752;28;20290;-73
2022/08/26 07:28:21;;;;;;;24.83;11.40;;;21.70;99.90;;;;;;5028863;28;20559;-72
2022/08/26 07:30:48;;;;;;;22.73;11.27;;;21.80;99.90;;;;;;5029359;28;20546;-72
2022/08/26 07:33:16;;;;;;;18.48;10.32;;;21.90;99.90;;;;;;5026704;28;20206;-72
2022/08/26 07:35:44;;;;;;;21.50;10.93;;;21.90;99.90;;;;;;5027597;28;21546;-73
2022/08/26 07:38:12;;;;;;;17.38;10.80;;;22.00;99.90;;;;;;5024776;28;20575;-73
2022/08/26 07:40:39;;;;;;;18.52;11.68;;;22.00;99.90;;;;;;5024800;28;20219;-72
2022/08/26 07:43:06;;;;;;;19.23;11.60;;;22.00;99.90;;;;;;5028488;28;20584;-73
2022/08/26 07:45:33;;;;;;;16.42;10.68;;;22.10;99.90;;;;;;5026992;28;20557;-71
2022/08/26 07:48:00;;;;;;;19.50;10.73;;;22.20;99.90;;;;;;5028983;28;20665;-73
2022/08/26 07:50:27;;;;;;;17.80;11.05;;;22.20;99.90;;;;;;5023844;28;20192;-73
2022/08/26 07:52:55;;;;;;;18.23;11.02;;;22.20;99.90;;;;;;5029265;28;20651;-73
2022/08/26 07:55:23;;;;;;;22.23;12.30;;;22.20;99.90;;;;;;5021833;28;20257;-73
2022/08/26 07:57:49;;;;;;;22.27;12.10;;;22.20;99.90;;;;;;5028555;28;20214;-72
2022/08/26 08:00:17;;;;;;;21.50;12.65;;;22.20;99.90;;;;;;5028075;28;20219;-73
2022/08/26 08:02:44;;;;;;;21.33;13.10;;;22.10;99.90;;;;;;5025637;28;20216;-71
2022/08/26 08:05:11;;;;;;;28.00;13.60;;;22.10;99.90;;;;;;5024821;28;20207;-72
2022/08/26 08:07:39;;;;;;;23.13;13.15;;;22.10;99.90;;;;;;5024131;28;20211;-72
2022/08/26 08:10:14;;;;;;;25.48;13.57;;;22.20;99.90;;;;;;5024600;28;20294;-71
2022/08/26 08:12:42;;;;;;;25.65;13.93;;;22.20;99.90;;;;;;5028817;28;20226;-72
2022/08/26 08:15:12;;;;;;;21.60;13.73;;;22.20;99.90;;;;;;5027363;28;20212;-71
2022/08/26 08:17:39;;;;;;;25.13;13.20;;;22.10;99.90;;;;;;5028531;28;20262;-72
2022/08/26 08:20:08;;;;;;;22.73;13.18;;;22.10;99.90;;;;;;5028495;28;20950;-71
2022/08/26 08:22:35;;;;;;;26.33;14.50;;;22.20;99.90;;;;;;5027173;28;20208;-71
2022/08/26 08:25:02;;;;;;;23.17;12.82;;;22.20;99.90;;;;;;5027649;28;20215;-71
2022/08/26 08:27:32;;;;;;;26.38;13.68;;;22.30;99.90;;;;;;5023285;28;20278;-68
2022/08/26 08:30:00;;;;;;;29.48;14.60;;;22.30;99.90;;;;;;5027859;28;20199;-68
2022/08/26 08:32:28;;;;;;;23.85;13.95;;;22.30;99.90;;;;;;5026540;28;20211;-68
2022/08/26 08:34:55;;;;;;;22.05;13.77;;;22.40;99.90;;;;;;5031624;28;20568;-68
2022/08/26 08:37:22;;;;;;;25.98;13.48;;;22.50;99.90;;;;;;5028316;28;20542;-68
2022/08/26 08:39:49;;;;;;;26.65;13.45;;;22.60;99.90;;;;;;5028879;28;20212;-68
2022/08/26 08:42:35;;;;;;;25.10;13.50;;;22.70;99.90;;;;;;5030446;28;20203;-69
2022/08/26 08:45:06;;;;;;;25.35;14.30;;;22.90;99.90;;;;;;5027615;28;20677;-68
2022/08/26 08:47:37;;;;;;;23.38;14.07;;;23.00;99.90;;;;;;5030127;28;20204;-68
2022/08/26 08:50:23;;;;;;;25.05;13.93;;;23.00;99.90;;;;;;5031747;28;20200;-69
2022/08/26 08:52:57;;;;;;;24.50;15.35;;;23.00;99.90;;;;;;5030771;28;20200;-71
2022/08/26 08:55:31;;;;;;;26.23;15.02;;;23.10;99.90;;;;;;5028491;28;20646;-68
2022/08/26 08:58:07;;;;;;;29.00;15.68;;;23.10;99.90;;;;;;5028600;28;20658;-72
2022/08/26 09:00:46;;;;;;;28.73;14.55;;;23.20;99.90;;;;;;5026158;28;20219;-67
2022/08/26 09:03:28;;;;;;;24.70;13.85;;;23.40;99.90;;;;;;5029277;28;20241;-73
2022/08/26 09:05:57;;;;;;;24.15;14.30;;;23.40;99.90;;;;;;5013626;28;20199;-67
2022/08/26 09:08:29;;;;;;;23.30;14.00;;;23.70;99.90;;;;;;5029046;28;20269;-67
2022/08/26 09:10:59;;;;;;;27.65;14.45;;;23.90;99.90;;;;;;5014707;28;20671;-67
2022/08/26 09:13:28;;;;;;;24.08;13.02;;;24.20;99.90;;;;;;5022495;28;20569;-69
2022/08/26 09:16:05;;;;;;;22.85;14.00;;;24.40;99.90;;;;;;5024094;28;20212;-70
2022/08/26 09:18:48;;;;;;;23.73;13.85;;;24.50;99.90;;;;;;5018673;28;20238;-68
2022/08/26 09:21:16;;;;;;;21.73;12.93;;;24.90;99.90;;;;;;5014741;28;20294;-72
2022/08/26 09:23:46;;;;;;;35.20;13.65;;;25.00;99.90;;;;;;5015230;28;20277;-69
2022/08/26 09:26:17;;;;;;;23.00;13.90;;;25.30;99.90;;;;;;5015376;28;20216;-69
2022/08/26 09:28:49;;;;;;;26.73;14.10;;;25.70;99.90;;;;;;5012158;28;20220;-67
2022/08/26 09:31:22;;;;;;;24.55;12.73;;;26.20;99.90;;;;;;5022927;28;20439;-68
2022/08/26 09:33:49;;;;;;;26.95;13.43;;;26.30;99.90;;;;;;5026461;28;20239;-72
2022/08/26 09:36:25;;;;;;;31.55;11.25;;;26.80;99.90;;;;;;5024918;28;20289;-72
2022/08/26 09:38:53;;;;;;;23.52;10.57;;;26.60;99.90;;;;;;5026805;28;20214;-72
2022/08/26 09:41:25;;;;;;;25.95;9.30;;;26.80;99.90;;;;;;5023888;28;20247;-72
2022/08/26 09:44:24;;;;;;;21.63;10.13;;;27.00;99.90;;;;;;5023526;28;20288;-72
2022/08/26 09:46:57;;;;;;;24.35;9.55;;;27.20;99.90;;;;;;5018088;28;20204;-69
2022/08/26 09:49:28;;;;;;;23.08;9.55;;;27.20;99.90;;;;;;5023243;28;20204;-68
2022/08/26 09:52:20;;;;;;;24.55;10.80;;;26.90;99.90;;;;;;5024837;28;20215;-69
2022/08/26 09:55:02;;;;;;;21.65;10.23;;;26.80;99.90;;;;;;5004542;28;20208;-72
2022/08/26 09:57:31;;;;;;;25.42;10.88;;;27.10;99.90;;;;;;5020247;28;20201;-69
2022/08/26 10:00:00;;;;;;;20.83;9.48;;;27.00;99.90;;;;;;5021922;28;20212;-72
2022/08/26 10:02:40;;;;;;;19.95;9.57;;;27.00;99.90;;;;;;5019498;28;20209;-72
2022/08/26 10:05:15;;;;;;;26.85;9.35;;;27.00;99.90;;;;;;5018485;28;20220;-68
2022/08/26 10:07:45;;;;;;;19.17;8.63;;;27.50;99.90;;;;;;5019240;28;20222;-69
2022/08/26 10:10:21;;;;;;;15.43;8.38;;;27.50;99.90;;;;;;5012358;28;20218;-69
2022/08/26 10:12:56;;;;;;;15.85;8.90;;;27.80;99.90;;;;;;5008224;28;20222;-69
2022/08/26 10:15:25;;;;;;;14.18;8.38;;;27.50;99.90;;;;;;5013520;28;20830;-69
2022/08/26 10:18:01;;;;;;;13.77;8.73;;;27.50;99.90;;;;;;5008817;28;20211;-69
2022/08/26 10:20:32;;;;;;;17.10;9.23;;;27.60;99.90;;;;;;5009822;28;20765;-69
2022/08/26 10:23:03;;;;;;;14.70;8.57;;;27.50;99.90;;;;;;5010553;28;20991;-68
2022/08/26 10:25:36;;;;;;;13.15;8.48;;;27.60;99.90;;;;;;5009967;28;21369;-70
2022/08/26 10:28:10;;;;;;;14.10;8.10;;;27.60;99.90;;;;;;5013769;28;20216;-69
2022/08/26 10:30:45;;;;;;;18.83;9.57;;;27.70;99.90;;;;;;5009437;28;20200;-69
2022/08/26 10:33:15;;;;;;;13.73;7.78;;;27.80;99.90;;;;;;5011936;28;20218;-69
2022/08/26 10:35:48;;;;;;;15.00;8.52;;;27.80;99.90;;;;;;5023530;28;20668;-68
2022/08/26 10:38:19;;;;;;;15.40;8.13;;;27.80;99.90;;;;;;5020989;28;20204;-67
2022/08/26 10:40:53;;;;;;;15.45;8.93;;;27.50;99.90;;;;;;5020193;28;20227;-69
2022/08/26 10:43:25;;;;;;;13.23;8.40;;;27.50;99.90;;;;;;5020181;28;20215;-69
2022/08/26 10:45:54;;;;;;;14.40;8.27;;;27.70;99.90;;;;;;5010668;28;21192;-70
2022/08/26 10:48:26;;;;;;;15.88;8.20;;;27.70;99.90;;;;;;5024219;28;20208;-69
2022/08/26 10:50:56;;;;;;;12.45;8.30;;;28.00;99.90;;;;;;5019278;28;20208;-68
2022/08/26 10:53:29;;;;;;;16.83;8.82;;;27.70;99.90;;;;;;5018954;28;20227;-69
2022/08/26 10:56:02;;;;;;;18.10;9.13;;;27.70;99.90;;;;;;5012820;28;20270;-69
2022/08/26 10:58:49;;;;;;;16.60;8.25;;;28.10;99.90;;;;;;5011650;28;20292;-69
2022/08/26 11:04:20;;;;;;;19.45;8.40;;;28.90;99.90;;;;;;5011897;28;20491;-69
2022/08/26 11:06:47;;;;;;;13.98;7.40;;;28.50;99.90;;;;;;5022266;28;20239;-69
2022/08/26 11:09:45;;;;;;;15.00;7.60;;;28.80;99.90;;;;;;5019769;28;20274;-69
2022/08/26 11:12:46;;;;;;;14.32;7.15;;;28.90;99.90;;;;;;5020222;28;20208;-70
2022/08/26 11:15:34;;;;;;;13.75;7.22;;;28.70;99.90;;;;;;5020346;28;20199;-69
2022/08/26 11:18:04;;;;;;;13.95;7.75;;;28.70;99.90;;;;;;5010400;28;20219;-69
2022/08/26 11:20:37;;;;;;;11.88;7.45;;;29.20;99.90;;;;;;5016472;28;20277;-69
2022/08/26 11:23:44;;;;;;;15.43;7.30;;;29.00;99.90;;;;;;5019395;28;20278;-69
2022/08/26 11:26:17;;;;;;;15.57;6.80;;;29.00;99.80;;;;;;5012629;28;20208;-69
2022/08/26 11:28:46;;;;;;;11.23;6.43;;;29.30;97.50;;;;;;5008432;28;20526;-68
2022/08/26 11:31:52;;;;;;;11.40;6.00;;;29.30;85.90;;;;;;5012719;28;20203;-72
2022/08/26 11:34:55;;;;;;;15.07;6.35;;;29.30;79.80;;;;;;5009872;28;20254;-67
2022/08/26 11:37:26;;;;;;;14.02;6.97;;;29.60;70.30;;;;;;5024992;28;20718;-72
2022/08/26 11:39:55;;;;;;;13.45;6.35;;;29.70;66.20;;;;;;5022571;28;20261;-72
2022/08/26 11:42:31;;;;;;;11.57;5.80;;;29.60;49.60;;;;;;5007333;28;20231;-72
2022/08/26 11:45:00;;;;;;;11.98;6.68;;;30.20;50.70;;;;;;5004629;28;20584;-70
2022/08/26 11:47:30;;;;;;;9.52;6.22;;;29.70;62.70;;;;;;5019671;28;20728;-69
2022/08/26 11:50:14;;;;;;;11.98;6.13;;;29.70;63.50;;;;;;5019389;28;20211;-69
2022/08/26 11:52:50;;;;;;;10.27;5.93;;;29.70;61.40;;;;;;5019275;28;20298;-69
2022/08/26 11:55:17;;;;;;;17.50;6.60;;;29.40;77.10;;;;;;5020787;28;20309;-72
2022/08/26 11:57:46;;;;;;;14.50;7.32;;;29.40;71.90;;;;;;5014266;28;20666;-72
2022/08/26 12:00:19;;;;;;;9.65;6.28;;;29.30;62.60;;;;;;5008449;28;20721;-73
2022/08/26 12:02:47;;;;;;;7.85;5.75;;;29.30;59.50;;;;;;5013558;28;20290;-73
2022/08/26 12:05:23;;;;;;;12.13;6.20;;;30.20;57.90;;;;;;5015632;28;20211;-72
2022/08/26 12:07:52;;;;;;;17.35;7.22;;;29.80;60.00;;;;;;5016289;28;20269;-72
2022/08/26 12:10:28;;;;;;;17.42;6.75;;;29.50;57.40;;;;;;5017375;28;20219;-73
2022/08/26 12:12:56;;;;;;;14.60;7.35;;;29.90;64.00;;;;;;5026158;28;20229;-72
2022/08/26 12:15:24;;;;;;;12.52;5.97;;;29.50;66.60;;;;;;5025875;28;20204;-72
2022/08/26 12:17:51;;;;;;;12.13;6.53;;;29.60;50.80;;;;;;5014169;28;20287;-69
2022/08/26 12:20:44;;;;;;;14.73;6.80;;;29.60;54.10;;;;;;5023060;28;20236;-68
2022/08/26 12:23:21;;;;;;;14.25;6.57;;;30.20;55.40;;;;;;5027645;28;20662;-69
2022/08/26 12:25:50;;;;;;;15.70;6.93;;;30.60;48.70;;;;;;5009044;28;20290;-69
2022/08/26 12:28:20;;;;;;;11.32;6.57;;;30.50;56.80;;;;;;5011010;28;20205;-68
2022/08/26 12:31:03;;;;;;;15.95;6.80;;;31.20;39.80;;;;;;5010155;28;20208;-69
2022/08/26 12:33:31;;;;;;;17.05;7.07;;;31.20;43.30;;;;;;5025787;28;20212;-68
2022/08/26 12:36:00;;;;;;;15.55;7.25;;;31.00;42.60;;;;;;5015493;28;20225;-69
2022/08/26 12:38:28;;;;;;;18.30;7.35;;;30.70;42.00;;;;;;5027236;28;20265;-73
2022/08/26 12:40:56;;;;;;;15.93;6.47;;;31.10;41.50;;;;;;5027719;28;20219;-73
2022/08/26 12:43:38;;;;;;;16.52;7.57;;;31.40;39.50;;;;;;5017162;28;20651;-74
2022/08/26 12:46:07;;;;;;;17.90;7.75;;;30.70;48.40;;;;;;5012251;28;20685;-71
2022/08/26 12:48:37;;;;;;;14.95;7.25;;;30.30;60.50;;;;;;5019296;28;20244;-70
2022/08/26 12:51:09;;;;;;;14.80;7.28;;;30.30;56.50;;;;;;5013958;28;20295;-70